createdAt,value
2022-10-10T00:01:21.487Z,3.83
2022-10-10T00:03:48.527Z,4.10
2022-10-10T00:06:16.019Z,4.63
2022-10-10T00:08:43.821Z,3.60
2022-10-10T00:11:11.651Z,4.20
2022-10-10T00:13:39.028Z,4.07
2022-10-10T00:16:06.312Z,4.03
2022-10-10T00:18:33.277Z,4.27
2022-10-10T00:21:00.286Z,4.10
2022-10-10T00:23:27.167Z,4.10
2022-10-10T00:25:53.580Z,4.47
2022-10-10T00:28:20.554Z,4.00
2022-10-10T00:30:47.029Z,4.33
2022-10-10T00:33:13.581Z,4.23
2022-10-10T00:35:40.529Z,4.30
2022-10-10T00:38:07.485Z,4.10
2022-10-10T00:40:34.210Z,4.03
2022-10-10T00:43:00.882Z,4.27
2022-10-10T00:45:38.754Z,4.40
2022-10-10T00:48:13.586Z,4.90
2022-10-10T00:50:48.655Z,4.63
2022-10-10T00:53:18.384Z,3.87
2022-10-10T00:55:45.768Z,4.63
2022-10-10T00:58:13.803Z,3.37
2022-10-10T01:00:40.277Z,4.30
2022-10-10T01:03:06.792Z,4.10
2022-10-10T01:05:33.371Z,4.53
2022-10-10T01:08:01.875Z,4.67
2022-10-10T01:10:28.968Z,3.83
2022-10-10T01:13:07.712Z,4.60
2022-10-10T01:15:54.997Z,4.10
2022-10-10T01:18:53.963Z,4.50
2022-10-10T01:21:42.663Z,3.57
2022-10-10T01:24:38.280Z,4.43
2022-10-10T01:27:30.396Z,4.03
2022-10-10T01:30:10.844Z,4.40
2022-10-10T01:32:47.458Z,4.47
2022-10-10T01:35:28.496Z,4.23
2022-10-10T01:38:32.560Z,3.90
2022-10-10T01:41:10.394Z,4.13
2022-10-10T01:43:37.520Z,4.10
2022-10-10T01:46:13.156Z,3.63
2022-10-10T01:48:40.988Z,4.20
2022-10-10T01:51:34.483Z,4.60
2022-10-10T01:54:22.674Z,4.37
2022-10-10T01:57:04.416Z,4.23
2022-10-10T01:59:48.374Z,4.53
2022-10-10T02:02:55.549Z,4.80
2022-10-10T02:05:47.208Z,4.37
2022-10-10T02:08:33.567Z,4.23
2022-10-10T02:11:03.697Z,4.27
2022-10-10T02:13:36.798Z,4.53
2022-10-10T02:16:08.247Z,4.43
2022-10-10T02:18:36.270Z,4.40
2022-10-10T02:21:06.468Z,4.30
2022-10-10T02:23:34.151Z,4.23
2022-10-10T02:26:01.129Z,5.20
2022-10-10T02:29:04.965Z,4.60
2022-10-10T02:31:37.356Z,3.97
2022-10-10T02:34:17.267Z,4.40
2022-10-10T02:36:49.755Z,5.30
2022-10-10T02:39:17.803Z,4.83
2022-10-10T02:41:47.281Z,3.80
2022-10-10T02:44:14.497Z,4.37
2022-10-10T02:46:41.667Z,4.63
2022-10-10T02:49:08.842Z,4.50
2022-10-10T02:51:35.511Z,5.07
2022-10-10T02:54:02.244Z,4.93
2022-10-10T02:56:28.622Z,4.37
2022-10-10T02:58:55.076Z,5.07
2022-10-10T03:01:21.563Z,4.87
2022-10-10T03:03:48.005Z,4.43
2022-10-10T03:06:14.398Z,4.83
2022-10-10T03:08:41.185Z,4.30
2022-10-10T03:11:08.155Z,4.10
2022-10-10T03:13:34.621Z,4.90
2022-10-10T03:16:01.349Z,5.07
2022-10-10T03:18:27.735Z,5.27
2022-10-10T03:20:56.596Z,4.60
2022-10-10T03:23:24.757Z,4.53
2022-10-10T03:25:51.679Z,4.63
2022-10-10T03:28:18.479Z,4.63
2022-10-10T03:30:46.110Z,4.60
2022-10-10T03:33:12.655Z,5.23
2022-10-10T03:35:39.507Z,4.57
2022-10-10T03:38:06.361Z,4.53
2022-10-10T03:40:33.093Z,4.23
2022-10-10T03:42:59.945Z,4.53
2022-10-10T03:45:26.461Z,4.97
2022-10-10T03:47:52.843Z,5.10
2022-10-10T03:50:19.261Z,5.33
2022-10-10T03:52:45.740Z,5.30
2022-10-10T03:55:12.250Z,4.60
2022-10-10T03:57:38.706Z,4.23
2022-10-10T04:00:05.801Z,5.03
2022-10-10T04:02:33.314Z,5.07
2022-10-10T04:04:59.697Z,5.43
2022-10-10T04:07:26.115Z,5.00
2022-10-10T04:09:52.487Z,5.23
2022-10-10T04:12:18.924Z,4.77
2022-10-10T04:14:45.329Z,5.60
2022-10-10T04:17:11.749Z,5.80
2022-10-10T04:19:38.211Z,5.00
2022-10-10T04:22:08.964Z,4.80
2022-10-10T04:24:37.565Z,5.60
2022-10-10T04:27:04.200Z,5.10
2022-10-10T04:29:30.737Z,5.40
2022-10-10T04:31:57.116Z,5.10
2022-10-10T04:34:23.525Z,5.07
2022-10-10T04:36:51.059Z,5.30
2022-10-10T04:39:17.449Z,5.10
2022-10-10T04:41:43.866Z,5.30
2022-10-10T04:44:10.265Z,5.00
2022-10-10T04:46:36.774Z,5.03
2022-10-10T04:49:03.319Z,5.10
2022-10-10T04:51:29.817Z,6.17
2022-10-10T04:53:56.212Z,5.50
2022-10-10T04:56:22.685Z,5.53
2022-10-10T04:58:49.060Z,4.50
2022-10-10T05:01:15.508Z,5.57
2022-10-10T05:03:41.965Z,5.00
2022-10-10T05:06:08.541Z,4.83
2022-10-10T05:08:35.068Z,5.03
2022-10-10T05:11:01.749Z,5.20
2022-10-10T05:13:28.235Z,5.30
2022-10-10T05:15:54.696Z,5.10
2022-10-10T05:18:21.611Z,5.77
2022-10-10T05:20:48.194Z,5.23
2022-10-10T05:23:15.580Z,5.20
2022-10-10T05:25:48.446Z,5.33
2022-10-10T05:28:15.289Z,5.10
2022-10-10T05:30:42.037Z,4.67
2022-10-10T05:33:08.450Z,4.90
2022-10-10T05:35:34.931Z,5.07
2022-10-10T05:38:01.765Z,5.10
2022-10-10T05:40:28.273Z,4.93
2022-10-10T05:42:54.729Z,4.33
2022-10-10T05:45:21.139Z,5.17
2022-10-10T05:47:47.779Z,5.00
2022-10-10T05:50:29.411Z,4.43
2022-10-10T05:52:55.969Z,5.43
2022-10-10T05:55:22.395Z,5.10
2022-10-10T05:57:48.905Z,5.30
2022-10-10T06:00:15.427Z,4.93
2022-10-10T06:02:41.875Z,4.77
2022-10-10T06:05:08.884Z,4.70
2022-10-10T06:07:59.053Z,5.20
2022-10-10T06:10:21.947Z,5.47
2022-10-10T06:12:48.542Z,5.33
2022-10-10T06:15:15.275Z,5.50
2022-10-10T06:17:41.758Z,5.43
2022-10-10T06:20:08.618Z,5.67
2022-10-10T06:22:36.405Z,5.47
2022-10-10T06:25:02.906Z,5.10
2022-10-10T06:27:29.337Z,5.90
2022-10-10T06:29:55.736Z,5.17
2022-10-10T06:32:22.206Z,5.30
2022-10-10T06:34:48.619Z,5.37
2022-10-10T06:37:15.183Z,6.20
2022-10-10T06:39:41.651Z,4.97
2022-10-10T06:42:08.086Z,4.97
2022-10-10T06:44:34.592Z,4.83
2022-10-10T06:47:00.970Z,5.47
2022-10-10T06:49:27.475Z,5.03
2022-10-10T06:51:53.936Z,4.33
2022-10-10T06:54:20.439Z,5.23
2022-10-10T06:56:47.115Z,5.80
2022-10-10T06:59:13.561Z,5.70
2022-10-10T07:01:40.138Z,6.10
2022-10-10T07:04:06.632Z,5.47
2022-10-10T07:06:34.948Z,5.33
2022-10-10T07:09:01.577Z,4.97
2022-10-10T07:11:28.016Z,4.13
2022-10-10T07:13:54.462Z,4.67
2022-10-10T07:16:21.008Z,5.60
2022-10-10T07:18:47.435Z,5.43
2022-10-10T07:21:13.904Z,5.10
2022-10-10T07:23:40.756Z,4.97
2022-10-10T07:26:11.714Z,4.93
2022-10-10T07:28:38.742Z,5.67
2022-10-10T07:31:11.063Z,5.17
2022-10-10T07:33:48.948Z,5.27
2022-10-10T07:36:16.553Z,5.57
2022-10-10T07:38:43.078Z,6.50
2022-10-10T07:41:12.764Z,7.27
2022-10-10T07:43:39.807Z,6.60
2022-10-10T07:46:09.630Z,6.27
2022-10-10T07:48:37.840Z,6.13
2022-10-10T07:51:07.119Z,6.23
2022-10-10T07:53:33.650Z,6.10
2022-10-10T07:56:00.257Z,5.67
2022-10-10T07:58:26.772Z,6.27
2022-10-10T08:01:02.257Z,6.40
2022-10-10T08:03:28.831Z,6.30
2022-10-10T08:05:55.224Z,7.00
2022-10-10T08:08:21.672Z,5.80
2022-10-10T08:10:48.294Z,5.40
2022-10-10T08:13:14.728Z,5.70
2022-10-10T08:15:41.781Z,5.80
2022-10-10T08:18:08.262Z,5.27
2022-10-10T08:20:34.729Z,5.30
2022-10-10T08:23:01.145Z,4.60
2022-10-10T08:25:27.828Z,5.23
2022-10-10T08:27:54.262Z,5.77
2022-10-10T08:30:20.807Z,5.83
2022-10-10T08:32:47.305Z,6.07
2022-10-10T08:35:13.861Z,5.80
2022-10-10T08:37:40.340Z,6.07
2022-10-10T08:40:07.810Z,6.03
2022-10-10T08:42:46.965Z,4.77
2022-10-10T08:45:21.732Z,5.53
2022-10-10T08:47:58.234Z,5.23
2022-10-10T08:50:45.616Z,6.30
2022-10-10T08:53:29.246Z,5.70
2022-10-10T08:55:55.989Z,5.20
2022-10-10T08:58:29.950Z,5.27
2022-10-10T09:01:04.297Z,5.33
2022-10-10T09:03:39.462Z,6.70
2022-10-10T09:06:43.907Z,5.50
2022-10-10T09:09:35.556Z,5.93
2022-10-10T09:12:28.916Z,5.73
2022-10-10T09:15:34.114Z,5.27
2022-10-10T09:18:08.656Z,5.90
2022-10-10T09:20:41.093Z,4.87
2022-10-10T09:23:32.252Z,4.90
2022-10-10T09:26:17.659Z,5.60
2022-10-10T09:28:50.576Z,5.37
2022-10-10T09:31:26.781Z,4.93
2022-10-10T09:34:00.062Z,4.97
2022-10-10T09:36:34.104Z,5.13
2022-10-10T09:39:05.237Z,6.00
2022-10-10T09:41:52.333Z,4.90
2022-10-10T09:44:21.387Z,5.40
2022-10-10T09:46:48.184Z,5.13
2022-10-10T09:49:16.881Z,5.47
2022-10-10T09:51:44.514Z,5.50
2022-10-10T09:54:13.926Z,5.30
2022-10-10T09:56:44.573Z,5.23
2022-10-10T09:59:42.276Z,4.53
2022-10-10T10:02:17.236Z,5.30
2022-10-10T10:04:44.452Z,5.00
2022-10-10T10:07:31.145Z,4.97
2022-10-10T10:10:03.037Z,4.87
2022-10-10T10:12:37.621Z,4.83
2022-10-10T10:15:16.588Z,4.50
2022-10-10T10:17:43.445Z,4.07
2022-10-10T10:20:37.808Z,4.63
2022-10-10T10:23:04.314Z,4.73
2022-10-10T10:25:38.043Z,4.17
2022-10-10T10:28:10.823Z,3.97
2022-10-10T10:30:38.520Z,3.40
2022-10-10T10:33:14.440Z,3.73
2022-10-10T10:36:05.270Z,3.90
2022-10-10T10:39:18.623Z,3.23
2022-10-10T10:41:53.960Z,3.23
2022-10-10T10:44:36.341Z,3.00
2022-10-10T10:47:09.822Z,2.70
2022-10-10T10:49:40.479Z,2.37
2022-10-10T10:52:40.768Z,2.17
2022-10-10T10:55:25.926Z,2.60
2022-10-10T10:58:48.557Z,2.53
2022-10-10T11:01:20.967Z,2.70
2022-10-10T11:05:18.208Z,2.27
2022-10-10T11:07:21.225Z,2.10
2022-10-10T11:10:07.624Z,1.37
2022-10-10T11:12:52.058Z,1.80
2022-10-10T11:15:30.796Z,1.70
2022-10-10T11:18:15.378Z,1.73
2022-10-10T11:20:50.021Z,1.87
2022-10-10T11:23:25.233Z,1.67
2022-10-10T11:25:58.187Z,2.17
2022-10-10T11:28:37.834Z,1.60
2022-10-10T11:31:12.572Z,1.53
2022-10-10T11:33:44.371Z,1.50
2022-10-10T11:36:19.393Z,2.07
2022-10-10T11:39:11.542Z,1.60
2022-10-10T11:41:47.810Z,1.20
2022-10-10T11:44:20.145Z,1.40
2022-10-10T11:47:24.269Z,1.20
2022-10-10T11:49:53.702Z,1.50
2022-10-10T11:52:57.389Z,0.90
2022-10-10T11:55:33.385Z,1.00
2022-10-10T11:58:05.853Z,0.47
2022-10-10T12:00:49.751Z,1.03
2022-10-10T12:03:16.341Z,1.17
2022-10-10T12:05:50.865Z,0.87
2022-10-10T12:08:25.942Z,0.77
2022-10-10T12:10:58.727Z,0.50
2022-10-10T12:13:35.270Z,0.60
2022-10-10T12:16:06.576Z,0.43
2022-10-10T12:18:51.544Z,0.50
2022-10-10T12:21:21.201Z,0.40
2022-10-10T12:23:59.426Z,0.70
2022-10-10T12:26:45.856Z,0.30
2022-10-10T12:29:12.385Z,0.60
2022-10-10T12:31:40.250Z,0.40
2022-10-10T12:34:12.333Z,0.50
2022-10-10T12:36:57.332Z,0.80
2022-10-10T12:39:23.673Z,0.57
2022-10-10T12:41:57.006Z,0.57
2022-10-10T12:44:35.643Z,0.73
2022-10-10T12:47:59.718Z,0.70
2022-10-10T12:50:38.537Z,0.97
2022-10-10T12:53:16.316Z,0.53
2022-10-10T12:55:46.604Z,1.03
2022-10-10T12:58:27.215Z,0.80
2022-10-10T13:00:57.747Z,1.20
2022-10-10T13:03:29.946Z,0.97
2022-10-10T13:06:02.554Z,1.13
2022-10-10T13:08:29.924Z,1.20
2022-10-10T13:11:06.013Z,1.20
2022-10-10T13:13:32.741Z,1.23
2022-10-10T13:16:14.863Z,1.03
2022-10-10T13:18:51.173Z,1.20
2022-10-10T13:21:31.007Z,1.97
2022-10-10T13:24:03.858Z,1.60
2022-10-10T13:26:45.591Z,1.37
2022-10-10T13:29:36.213Z,1.57
2022-10-10T13:32:14.677Z,2.00
2022-10-10T13:34:49.379Z,0.87
2022-10-10T13:37:17.963Z,1.20
2022-10-10T13:39:45.161Z,1.60
2022-10-10T13:42:33.560Z,1.23
2022-10-10T13:45:03.049Z,1.93
2022-10-10T13:47:49.837Z,1.43
2022-10-10T13:50:42.081Z,1.30
2022-10-10T13:53:32.066Z,1.87
2022-10-10T13:56:12.539Z,1.77
2022-10-10T13:59:07.150Z,1.80
2022-10-10T14:01:40.624Z,1.53
2022-10-10T14:04:22.517Z,1.27
2022-10-10T14:06:59.435Z,1.70
2022-10-10T14:09:29.183Z,1.30
2022-10-10T14:11:56.607Z,1.57
2022-10-10T14:14:33.466Z,1.20
2022-10-10T14:17:02.731Z,1.53
2022-10-10T14:19:30.426Z,1.93
2022-10-10T14:21:57.484Z,2.10
2022-10-10T14:24:24.152Z,1.50
2022-10-10T14:26:50.805Z,0.97
2022-10-10T14:29:19.143Z,1.87
2022-10-10T14:31:46.722Z,1.30
2022-10-10T14:34:14.997Z,1.20
2022-10-10T14:36:50.711Z,1.23
2022-10-10T14:39:19.290Z,0.90
2022-10-10T14:41:46.123Z,1.30
2022-10-10T14:44:13.166Z,1.60
2022-10-10T14:46:41.585Z,1.27
2022-10-10T14:49:17.448Z,1.13
2022-10-10T14:51:44.136Z,1.33
2022-10-10T14:54:14.126Z,1.00
2022-10-10T14:57:09.549Z,1.53
2022-10-10T14:59:47.196Z,1.23
2022-10-10T15:02:15.161Z,1.37
2022-10-10T15:04:41.670Z,1.60
2022-10-10T15:07:14.713Z,1.40
2022-10-10T15:12:34.365Z,1.30
2022-10-10T15:15:01.044Z,1.43
2022-10-10T15:17:29.613Z,0.87
2022-10-10T15:19:56.212Z,1.10
2022-10-10T15:22:22.790Z,1.07
2022-10-10T15:24:49.178Z,1.20
2022-10-10T15:27:15.735Z,1.00
2022-10-10T15:29:42.250Z,1.33
2022-10-10T15:32:09.720Z,1.40
2022-10-10T15:34:36.572Z,1.33
2022-10-10T15:37:03.310Z,1.30
2022-10-10T15:39:31.019Z,1.30
2022-10-10T15:41:57.841Z,2.13
2022-10-10T15:44:24.350Z,1.10
2022-10-10T15:46:50.909Z,1.30
2022-10-10T15:49:17.567Z,1.73
2022-10-10T15:51:47.463Z,1.60
2022-10-10T15:54:15.705Z,0.80
2022-10-10T15:56:42.492Z,1.00
2022-10-10T15:59:10.137Z,1.10
2022-10-10T16:01:37.002Z,1.40
2022-10-10T16:04:05.148Z,0.97
2022-10-10T16:06:32.137Z,1.57
2022-10-10T16:09:16.466Z,1.17
2022-10-10T16:11:45.142Z,1.00
2022-10-10T16:14:11.533Z,1.70
2022-10-10T16:16:38.482Z,1.60
2022-10-10T16:19:05.614Z,1.70
2022-10-10T16:21:33.499Z,1.17
2022-10-10T16:24:00.614Z,1.27
2022-10-10T16:26:33.407Z,1.20
2022-10-10T16:29:01.490Z,1.60
2022-10-10T16:31:28.894Z,1.10
2022-10-10T16:33:57.297Z,1.00
2022-10-10T16:36:26.523Z,1.63
2022-10-10T16:38:54.818Z,1.23
2022-10-10T16:41:45.933Z,1.80
2022-10-10T16:44:07.848Z,1.60
2022-10-10T16:46:34.440Z,1.60
2022-10-10T16:49:01.353Z,1.53
2022-10-10T16:51:30.121Z,1.20
2022-10-10T16:54:00.579Z,1.10
2022-10-10T16:56:27.542Z,1.30
2022-10-10T16:58:54.016Z,1.33
2022-10-10T17:01:23.214Z,1.93
2022-10-10T17:03:51.281Z,1.20
2022-10-10T17:06:21.225Z,1.37
2022-10-10T17:08:49.660Z,1.77
2022-10-10T17:11:17.919Z,1.40
2022-10-10T17:13:44.853Z,1.47
2022-10-10T17:16:53.420Z,1.23
2022-10-10T17:19:03.168Z,1.17
2022-10-10T17:21:29.999Z,0.83
2022-10-10T17:23:56.397Z,1.03
2022-10-10T17:26:23.190Z,1.03
2022-10-10T17:28:50.654Z,1.40
2022-10-10T17:31:17.780Z,1.20
2022-10-10T17:33:51.009Z,1.20
2022-10-10T17:36:21.253Z,1.00
2022-10-10T17:38:48.511Z,1.83
2022-10-10T17:41:16.971Z,1.47
2022-10-10T17:43:44.181Z,1.20
2022-10-10T17:46:34.374Z,1.50
2022-10-10T17:49:04.167Z,1.20
2022-10-10T17:51:30.554Z,1.20
2022-10-10T17:53:59.491Z,1.00
2022-10-10T17:56:26.397Z,1.40
2022-10-10T17:58:52.830Z,1.07
2022-10-10T18:01:20.859Z,1.13
2022-10-10T18:03:48.379Z,0.80
2022-10-10T18:06:18.314Z,0.97
2022-10-10T18:08:47.160Z,2.07
2022-10-10T18:11:17.016Z,1.50
2022-10-10T18:13:44.141Z,1.40
2022-10-10T18:16:15.729Z,0.97
2022-10-10T18:18:48.210Z,1.10
2022-10-10T18:21:18.301Z,1.60
2022-10-10T18:23:44.708Z,1.30
2022-10-10T18:26:30.383Z,1.60
2022-10-10T18:28:57.141Z,1.37
2022-10-10T18:31:25.956Z,1.23
2022-10-10T18:33:53.315Z,1.50
2022-10-10T18:36:23.253Z,1.20
2022-10-10T18:38:49.869Z,1.20
2022-10-10T18:41:19.455Z,1.00
2022-10-10T18:43:47.237Z,1.10
2022-10-10T18:46:16.478Z,1.60
2022-10-10T18:48:43.707Z,1.10
2022-10-10T18:51:16.652Z,1.57
2022-10-10T18:53:45.617Z,1.30
2022-10-10T18:56:14.162Z,1.13
2022-10-10T18:58:41.095Z,0.80
2022-10-10T19:01:12.440Z,1.07
2022-10-10T19:03:39.955Z,1.00
2022-10-10T19:06:09.786Z,1.27
2022-10-10T19:08:37.122Z,0.93
2022-10-10T19:11:05.551Z,1.03
2022-10-10T19:13:33.388Z,1.10
2022-10-10T19:16:07.330Z,1.03
2022-10-10T19:18:35.009Z,1.10
2022-10-10T19:21:04.138Z,1.00
2022-10-10T19:23:32.042Z,1.30
2022-10-10T19:26:03.747Z,1.60
2022-10-10T19:28:31.502Z,1.00
2022-10-10T19:30:58.149Z,1.03
2022-10-10T19:33:24.540Z,1.03
2022-10-10T19:35:52.333Z,1.17
2022-10-10T19:38:19.290Z,1.03
2022-10-10T19:40:47.696Z,1.33
2022-10-10T19:43:15.593Z,1.00
2022-10-10T19:45:44.051Z,1.27
2022-10-10T19:48:10.546Z,1.20
2022-10-10T19:50:41.876Z,1.00
2022-10-10T19:53:10.205Z,1.07
2022-10-10T19:55:36.819Z,1.00
2022-10-10T19:58:04.879Z,1.20
2022-10-10T20:00:31.649Z,1.23
2022-10-10T20:02:58.119Z,1.20
2022-10-10T20:05:24.538Z,0.93
2022-10-10T20:07:51.680Z,1.20
2022-10-10T20:10:19.078Z,0.80
2022-10-10T20:12:46.612Z,1.37
2022-10-10T20:15:13.127Z,1.17
2022-10-10T20:17:39.697Z,0.83
2022-10-10T20:20:06.775Z,0.70
2022-10-10T20:22:34.571Z,0.70
2022-10-10T20:25:01.621Z,0.83
2022-10-10T20:27:31.245Z,0.80
2022-10-10T20:29:59.133Z,0.87
2022-10-10T20:32:25.582Z,1.13
2022-10-10T20:34:52.603Z,0.87
2022-10-10T20:37:19.010Z,0.83
2022-10-10T20:39:45.476Z,1.00
2022-10-10T20:42:11.943Z,0.80
2022-10-10T20:44:38.353Z,0.83
2022-10-10T20:47:06.724Z,0.93
2022-10-10T20:49:33.429Z,1.03
2022-10-10T20:51:59.791Z,1.40
2022-10-10T20:54:26.313Z,1.00
2022-10-10T20:56:52.748Z,1.37
2022-10-10T20:59:20.944Z,1.07
2022-10-10T21:01:47.523Z,1.30
2022-10-10T21:04:14.214Z,1.00
2022-10-10T21:06:44.111Z,0.80
2022-10-10T21:09:13.612Z,1.20
2022-10-10T21:11:40.396Z,1.20
2022-10-10T21:14:07.427Z,1.10
2022-10-10T21:16:37.131Z,1.00
2022-10-10T21:19:06.046Z,1.27
2022-10-10T21:21:34.825Z,1.40
2022-10-10T21:24:02.632Z,1.20
2022-10-10T21:26:30.112Z,1.20
2022-10-10T21:28:57.888Z,0.70
2022-10-10T21:31:27.766Z,1.23
2022-10-10T21:33:55.250Z,0.87
2022-10-10T21:36:23.996Z,1.70
2022-10-10T21:38:50.510Z,1.10
2022-10-10T21:41:19.607Z,1.43
2022-10-10T21:43:48.123Z,0.83
2022-10-10T21:46:17.231Z,1.07
2022-10-10T21:48:43.949Z,0.80
2022-10-10T21:51:10.909Z,1.10
2022-10-10T21:53:37.360Z,1.30
2022-10-10T21:56:08.836Z,1.33
2022-10-10T21:58:37.619Z,0.97
2022-10-10T22:01:12.533Z,0.93
2022-10-10T22:03:39.327Z,0.90
2022-10-10T22:06:09.481Z,0.60
2022-10-10T22:08:36.556Z,1.10
2022-10-10T22:11:10.109Z,1.40
2022-10-10T22:13:36.894Z,1.57
2022-10-10T22:16:04.086Z,1.33
2022-10-10T22:18:31.109Z,1.50
2022-10-10T22:20:57.923Z,0.93
2022-10-10T22:23:24.583Z,1.30
2022-10-10T22:25:51.856Z,1.20
2022-10-10T22:28:19.063Z,1.03
2022-10-10T22:30:45.607Z,1.13
2022-10-10T22:33:12.039Z,1.27
2022-10-10T22:35:39.214Z,1.00
2022-10-10T22:38:06.852Z,0.83
2022-10-10T22:40:33.369Z,1.10
2022-10-10T22:43:00.582Z,1.00
2022-10-10T22:45:27.171Z,1.40
2022-10-10T22:47:53.623Z,1.10
2022-10-10T22:50:20.026Z,1.10
2022-10-10T22:52:46.535Z,1.77
2022-10-10T22:55:17.366Z,1.10
2022-10-10T22:57:44.786Z,1.30
2022-10-10T23:00:12.008Z,1.20
2022-10-10T23:02:38.499Z,1.43
2022-10-10T23:05:05.426Z,1.30
2022-10-10T23:07:31.885Z,1.17
2022-10-10T23:09:58.630Z,1.20
2022-10-10T23:12:25.010Z,1.30
2022-10-10T23:14:51.380Z,1.10
2022-10-10T23:17:17.849Z,1.00
2022-10-10T23:19:47.098Z,1.37
2022-10-10T23:22:13.499Z,1.17
2022-10-10T23:24:40.439Z,0.90
2022-10-10T23:27:06.834Z,1.47
2022-10-10T23:29:33.821Z,0.97
2022-10-10T23:32:00.334Z,1.00
2022-10-10T23:34:26.806Z,1.43
2022-10-10T23:36:53.259Z,1.30
2022-10-10T23:39:19.702Z,1.30
2022-10-10T23:41:46.117Z,1.10
2022-10-10T23:44:12.507Z,1.13
2022-10-10T23:46:39.046Z,1.63
2022-10-10T23:49:05.475Z,1.87
2022-10-10T23:51:32.214Z,1.80
2022-10-10T23:53:58.759Z,1.60
2022-10-10T23:56:25.299Z,2.17
2022-10-10T23:58:51.749Z,1.30
